Los Antiguos, Argentina
Current Conditions -  °F | °C
As of 12:00 AM on Wednesday 26 Nov 2014 (Local Time) from SCBA Reporting Station
Overcast Overcast  
Wind Chill:   Ceiling: Unl
Heat Index:   Visibility: 6mi
Dew Point:   Wind: 22mph
Humidity: 61%   Direction: 300°WNW
Pressure: 29.94"   Gusts: NA
Location:  46.55°S, 71.62°W
Report Text: SCBA 260300Z AUTO 30019KT 9999 VV/// 07/00 Q1014
Loading
Personal Weather Stations






























Interactive Weather Map New forecast layout! Learn more

10-Day Weather Forecast

Advertisements
Track Severe Weather on mobile